| time (UTC) | temp C | wind direction | speed KPH | gust KPH | rain 1hr cm | rain 24hr cm | rain mn cm | humidity % | barometer mb |
| 20260906215152 | 34 | 184 | 6.4 | 19.3 | 0.00 | 0.08 | 0.00 | 31 | 1018.1 |
| 20260906214653 | 34 | 135 | 8.0 | 19.3 | 0.00 | 0.08 | 0.00 | 31 | 1018.2 |
| 20260906214152 | 34 | 149 | 8.0 | 24.1 | 0.00 | 0.08 | 0.00 | 31 | 1018.2 |
| 20260906213653 | 35 | 168 | 8.0 | 24.1 | 0.00 | 0.08 | 0.00 | 31 | 1018.2 |
| 20260906213154 | 35 | 148 | 8.0 | 19.3 | 0.00 | 0.08 | 0.00 | 31 | 1018.1 |
| 20260906212652 | 35 | 200 | 8.0 | 19.3 | 0.00 | 0.08 | 0.00 | 31 | 1018.1 |
| 20260906212152 | 35 | 176 | 6.4 | 19.3 | 0.00 | 0.08 | 0.00 | 31 | 1018.2 |
| 20260906211652 | 35 | 102 | 6.4 | 17.7 | 0.00 | 0.08 | 0.00 | 31 | 1018.3 |
| 20260906211152 | 35 | 194 | 6.4 | 19.3 | 0.00 | 0.08 | 0.00 | 31 | 1018.4 |
| 20260906210652 | 35 | 130 | 8.0 | 19.3 | 0.00 | 0.08 | 0.00 | 32 | 1018.6 |
| 20260906210152 | 35 | 165 | 6.4 | 19.3 | 0.00 | 0.08 | 0.00 | 32 | 1018.7 |
| 20260906205652 | 35 | 113 | 8.0 | 17.7 | 0.00 | 0.08 | 0.00 | 33 | 1018.8 |
| 20260906205152 | 34 | 127 | 8.0 | 17.7 | 0.00 | 0.08 | 0.00 | 32 | 1018.8 |
| 20260906204652 | 35 | 59 | 8.0 | 24.1 | 0.00 | 0.08 | 0.00 | 33 | 1018.8 |
| 20260906204154 | 35 | 163 | 4.8 | 24.1 | 0.00 | 0.08 | 0.00 | 32 | 1018.9 |
| 20260906204150 | 35 | 180 | 4.8 | 12.9 | 0.00 | 0.08 | 0.00 | 32 | 1018.9 |
| 20260906203155 | 35 | 179 | 6.4 | 17.7 | 0.00 | 0.08 | 0.00 | 32 | 1019.0 |
| 20260906203149 | 35 | 184 | 8.0 | 17.7 | 0.00 | 0.08 | 0.00 | 32 | 1018.9 |
| 20260906202648 | 35 | 169 | 4.8 | 17.7 | 0.00 | 0.08 | 0.00 | 32 | 1019.0 |
| 20260906201653 | 34 | 175 | 6.4 | 17.7 | 0.00 | 0.08 | 0.00 | 32 | 1019.1 |
| 20260906201647 | 35 | 70 | 4.8 | 16.1 | 0.00 | 0.08 | 0.00 | 32 | 1019.0 |
| 20260906201146 | 35 | 163 | 6.4 | 17.7 | 0.00 | 0.08 | 0.00 | 32 | 1019.1 |
| 20260906200146 | 35 | 182 | 6.4 | 19.3 | 0.00 | 0.08 | 0.00 | 33 | 1019.2 |
| 20260906195645 | 34 | 130 | 8.0 | 25.7 | 0.00 | 0.08 | 0.00 | 33 | 1019.1 |
| 20260906195146 | 34 | 88 | 6.4 | 25.7 | 0.00 | 0.08 | 0.00 | 33 | 1019.2 |
| 20260906194645 | 34 | 219 | 6.4 | 22.5 | 0.00 | 0.08 | 0.00 | 34 | 1019.2 |
| 20260906194143 | 34 | 182 | 6.4 | 22.5 | 0.00 | 0.08 | 0.00 | 34 | 1019.3 |
| 20260906193649 | 34 | 206 | 4.8 | 14.5 | 0.00 | 0.08 | 0.00 | 35 | 1019.6 |
| 20260906193645 | 34 | 112 | 8.0 | 22.5 | 0.00 | 0.08 | 0.00 | 34 | 1019.4 |
| 20260906193144 | 34 | 162 | 6.4 | 19.3 | 0.00 | 0.08 | 0.00 | 34 | 1019.4 |
| 20260906192144 | 34 | 246 | 4.8 | 17.7 | 0.00 | 0.08 | 0.00 | 35 | 1019.7 |
| 20260906191644 | 33 | 113 | 6.4 | 20.9 | 0.00 | 0.08 | 0.00 | 37 | 1019.7 |
| 20260906191144 | 33 | 190 | 8.0 | 20.9 | 0.00 | 0.08 | 0.00 | 37 | 1019.9 |
| 20260906190647 | 33 | 180 | 8.0 | 20.9 | 0.00 | 0.08 | 0.00 | 36 | 1019.9 |
| 20260906190642 | 33 | 178 | 6.4 | 19.3 | 0.00 | 0.08 | 0.00 | 37 | 1020.0 |
| 20260906185642 | 33 | 178 | 6.4 | 19.3 | 0.00 | 0.08 | 0.00 | 36 | 1020.0 |
| 20260906185141 | 33 | 202 | 4.8 | 17.7 | 0.00 | 0.08 | 0.00 | 37 | 1020.1 |
| 20260906184639 | 33 | 178 | 4.8 | 16.1 | 0.00 | 0.08 | 0.00 | 36 | 1020.1 |
| 20260906184139 | 33 | 78 | 6.4 | 19.3 | 0.00 | 0.08 | 0.00 | 37 | 1020.2 |
| 20260906183641 | 33 | 165 | 6.4 | 19.3 | 0.00 | 0.08 | 0.00 | 37 | 1020.3 |
| 20260906183145 | 33 | 161 | 6.4 | 17.7 | 0.00 | 0.08 | 0.00 | 38 | 1020.5 |
| 20260906183139 | 33 | 140 | 6.4 | 17.7 | 0.00 | 0.08 | 0.00 | 39 | 1020.5 |
| 20260906182144 | 33 | 133 | 6.4 | 17.7 | 0.00 | 0.08 | 0.00 | 38 | 1020.6 |
| 20260906182139 | 33 | 163 | 6.4 | 17.7 | 0.00 | 0.08 | 0.00 | 37 | 1020.6 |
| 20260906181138 | 33 | 138 | 4.8 | 16.1 | 0.00 | 0.08 | 0.00 | 38 | 1020.6 |
| 20260906180638 | 33 | 119 | 6.4 | 17.7 | 0.00 | 0.08 | 0.00 | 39 | 1020.8 |
| 20260906180137 | 32 | 145 | 6.4 | 17.7 | 0.00 | 0.08 | 0.00 | 39 | 1020.8 |
| 20260906175637 | 32 | 148 | 6.4 | 22.5 | 0.00 | 0.08 | 0.00 | 40 | 1020.9 |
| 20260906175139 | 32 | 166 | 8.0 | 22.5 | 0.00 | 0.08 | 0.00 | 40 | 1021.0 |
| 20260906174636 | 32 | 130 | 8.0 | 30.6 | 0.00 | 0.08 | 0.00 | 40 | 1021.1 |
| 20260906174136 | 32 | 98 | 8.0 | 30.6 | 0.00 | 0.08 | 0.00 | 40 | 1021.1 |
| 20260906173635 | 32 | 215 | 8.0 | 20.9 | 0.00 | 0.08 | 0.00 | 40 | 1021.0 |
| 20260906173138 | 32 | 165 | 8.0 | 27.4 | 0.00 | 0.08 | 0.00 | 41 | 1021.1 |
| 20260906173134 | 32 | 168 | 8.0 | 27.4 | 0.00 | 0.08 | 0.00 | 41 | 1021.2 |
| 20260906172138 | 32 | 142 | 6.4 | 19.3 | 0.00 | 0.08 | 0.00 | 41 | 1021.2 |
| 20260906172132 | 32 | 147 | 6.4 | 19.3 | 0.00 | 0.08 | 0.00 | 42 | 1021.2 |
| 20260906171136 | 32 | 169 | 6.4 | 19.3 | 0.00 | 0.08 | 0.00 | 44 | 1021.2 |
| 20260906171131 | 32 | 264 | 6.4 | 17.7 | 0.00 | 0.08 | 0.00 | 43 | 1021.3 |
| 20260906170131 | 31 | 117 | 4.8 | 17.7 | 0.00 | 0.08 | 0.00 | 45 | 1021.2 |
| 20260906165630 | 31 | 169 | 6.4 | 24.1 | 0.00 | 0.08 | 0.00 | 45 | 1021.3 |
| 20260906165129 | 31 | 161 | 6.4 | 24.1 | 0.00 | 0.08 | 0.00 | 46 | 1021.3 |
| 20260906164631 | 31 | 208 | 3.2 | 16.1 | 0.00 | 0.08 | 0.00 | 48 | 1021.3 |
| 20260906164131 | 31 | 159 | 3.2 | 14.5 | 0.00 | 0.08 | 0.00 | 50 | 1021.5 |
| 20260906163628 | 31 | 110 | 3.2 | 11.3 | 0.00 | 0.08 | 0.00 | 50 | 1021.5 |
| 20260906163126 | 30 | 101 | 3.2 | 11.3 | 0.00 | 0.08 | 0.00 | 51 | 1021.3 |
| 20260906162630 | 30 | 166 | 6.4 | 17.7 | 0.00 | 0.08 | 0.00 | 53 | 1021.3 |
| 20260906162626 | 30 | 183 | 4.8 | 11.3 | 0.00 | 0.08 | 0.00 | 52 | 1021.3 |
| 20260906161631 | 29 | 180 | 4.8 | 12.9 | 0.00 | 0.08 | 0.00 | 55 | 1021.5 |
| 20260906161627 | 29 | 161 | 6.4 | 17.7 | 0.00 | 0.08 | 0.00 | 53 | 1021.3 |
| 20260906160631 | 28 | 202 | 3.2 | 11.3 | 0.00 | 0.08 | 0.00 | 59 | 1021.5 |
| 20260906160626 | 28 | 136 | 6.4 | 19.3 | 0.00 | 0.08 | 0.00 | 55 | 1021.5 |
| 20260906160125 | 28 | 149 | 4.8 | 19.3 | 0.00 | 0.08 | 0.00 | 57 | 1021.5 |
| 20260906155125 | 28 | 145 | 3.2 | 8.0 | 0.00 | 0.08 | 0.00 | 60 | 1021.5 |
| 20260906154627 | 27 | 158 | 1.6 | 8.0 | 0.00 | 0.08 | 0.00 | 61 | 1021.5 |
| 20260906154127 | 27 | 200 | 1.6 | 12.9 | 0.00 | 0.08 | 0.00 | 61 | 1021.5 |
| 20260906153625 | 27 | 118 | 3.2 | 14.5 | 0.00 | 0.08 | 0.00 | 60 | 1021.5 |
| 20260906153125 | 27 | 244 | 4.8 | 14.5 | 0.00 | 0.08 | 0.00 | 59 | 1021.3 |
| 20260906152626 | 27 | 164 | 3.2 | 16.1 | 0.00 | 0.08 | 0.00 | 59 | 1021.3 |
| 20260906152125 | 27 | 162 | 3.2 | 16.1 | 0.00 | 0.08 | 0.00 | 60 | 1021.3 |
| 20260906151625 | 27 | 234 | 3.2 | 12.9 | 0.00 | 0.08 | 0.00 | 62 | 1021.3 |
| 20260906151125 | 26 | 178 | 3.2 | 12.9 | 0.00 | 0.08 | 0.00 | 62 | 1021.2 |
| 20260906150737 | 26 | 204 | 4.8 | 11.3 | 0.00 | 0.08 | 0.00 | 64 | 1021.2 |
| 20260906150625 | 26 | 170 | 3.2 | 11.3 | 0.00 | 0.08 | 0.00 | 62 | 1021.2 |
| 20260906150129 | 26 | 215 | 3.2 | 11.3 | 0.00 | 0.08 | 0.00 | 64 | 1021.2 |
| 20260906150125 | 26 | 207 | 3.2 | 11.3 | 0.00 | 0.08 | 0.00 | 64 | 1021.2 |
| 20260906144623 | 26 | 199 | 4.8 | 12.9 | 0.00 | 0.08 | 0.00 | 63 | 1021.2 |
| 20260906144121 | 25 | 128 | 3.2 | 12.9 | 0.00 | 0.08 | 0.00 | 64 | 1021.2 |
| 20260906143622 | 25 | 164 | 3.2 | 9.7 | 0.00 | 0.08 | 0.00 | 64 | 1021.2 |
| 20260906143122 | 25 | 157 | 3.2 | 9.7 | 0.00 | 0.08 | 0.00 | 64 | 1021.1 |
| 20260906142617 | 25 | 165 | 3.2 | 11.3 | 0.00 | 0.08 | 0.00 | 65 | 1021.1 |
| 20260906142117 | 25 | 182 | 3.2 | 11.3 | 0.00 | 0.08 | 0.00 | 65 | 1021.1 |
| 20260906141615 | 24 | 310 | 1.6 | 11.3 | 0.00 | 0.08 | 0.00 | 65 | 1021.0 |
| 20260906141119 | 24 | 160 | 3.2 | 12.9 | 0.00 | 0.08 | 0.00 | 65 | 1021.0 |
| 20260906141115 | 24 | 211 | 1.6 | 9.7 | 0.00 | 0.08 | 0.00 | 65 | 1021.0 |
| 20260906140111 | 23 | 185 | 4.8 | 12.9 | 0.00 | 0.08 | 0.00 | 66 | 1020.9 |
| 20260906135615 | 23 | 189 | 4.8 | 12.9 | 0.00 | 0.08 | 0.00 | 67 | 1020.9 |
| 20260906135610 | 23 | 121 | 4.8 | 12.9 | 0.00 | 0.08 | 0.00 | 66 | 1020.8 |
| 20260906134610 | 23 | 153 | 4.8 | 12.9 | 0.00 | 0.08 | 0.00 | 68 | 1020.8 |
| 20260906134109 | 22 | 152 | 3.2 | 11.3 | 0.00 | 0.08 | 0.00 | 68 | 1020.8 |
| 20260906133610 | 22 | 184 | 3.2 | 8.0 | 0.00 | 0.08 | 0.00 | 69 | 1020.8 |
| 20260906133110 | 22 | 174 | 3.2 | 8.0 | 0.00 | 0.08 | 0.00 | 69 | 1020.8 |
| 20260906132610 | 22 | 163 | 3.2 | 8.0 | 0.00 | 0.08 | 0.00 | 68 | 1020.7 |
| 20260906132109 | 22 | 219 | 1.6 | 8.0 | 0.00 | 0.08 | 0.00 | 68 | 1020.6 |
| 20260906131613 | 22 | 177 | 1.6 | 6.4 | 0.00 | 0.08 | 0.00 | 68 | 1020.5 |
| 20260906131608 | 22 | 171 | 1.6 | 8.0 | 0.00 | 0.08 | 0.00 | 68 | 1020.5 |
| 20260906130610 | 22 | 165 | 3.2 | 11.3 | 0.00 | 0.08 | 0.00 | 68 | 1020.5 |
| 20260906130113 | 22 | 186 | 3.2 | 11.3 | 0.00 | 0.08 | 0.00 | 68 | 1020.3 |
| 20260906130109 | 22 | 170 | 4.8 | 11.3 | 0.00 | 0.08 | 0.00 | 68 | 1020.2 |
| 20260906125711 | 22 | 144 | 3.2 | 11.3 | 0.00 | 0.08 | 0.00 | 68 | 1020.2 |
| 20260906124607 | 22 | 158 | 3.2 | 11.3 | 0.00 | 0.08 | 0.00 | 67 | 1020.2 |
| 20260906124107 | 22 | 132 | 3.2 | 11.3 | 0.00 | 0.08 | 0.00 | 67 | 1020.2 |
| 20260906123607 | 22 | 158 | 3.2 | 12.9 | 0.00 | 0.08 | 0.00 | 66 | 1020.2 |
| 20260906123106 | 22 | 171 | 3.2 | 14.5 | 0.00 | 0.08 | 0.00 | 66 | 1020.1 |
| 20260906122607 | 22 | 166 | 4.8 | 17.7 | 0.00 | 0.08 | 0.00 | 66 | 1020.1 |
| 20260906122108 | 22 | 174 | 4.8 | 17.7 | 0.00 | 0.08 | 0.00 | 65 | 1020.1 |
| 20260906121612 | 22 | 152 | 4.8 | 12.9 | 0.00 | 0.08 | 0.00 | 64 | 1020.0 |
| 20260906121608 | 22 | 133 | 3.2 | 11.3 | 0.00 | 0.08 | 0.00 | 65 | 1020.0 |
| 20260906120607 | 23 | 167 | 4.8 | 14.5 | 0.00 | 0.08 | 0.00 | 64 | 1020.0 |
| 20260906120112 | 23 | 195 | 4.8 | 16.1 | 0.00 | 0.08 | 0.00 | 63 | 1019.9 |
| 20260906120108 | 23 | 170 | 4.8 | 14.5 | 0.00 | 0.08 | 0.00 | 63 | 1019.9 |
| 20260906115107 | 23 | 194 | 3.2 | 16.1 | 0.00 | 0.08 | 0.00 | 62 | 1019.9 |
| 20260906114719 | 23 | 153 | 3.2 | 14.5 | 0.00 | 0.08 | 0.00 | 61 | 1019.7 |
| 20260906114611 | 23 | 159 | 3.2 | 14.5 | 0.00 | 0.08 | 0.00 | 61 | 1019.8 |
| 20260906114606 | 23 | 100 | 3.2 | 11.3 | 0.00 | 0.08 | 0.00 | 62 | 1019.8 |
| 20260906113105 | 23 | 180 | 3.2 | 11.3 | 0.00 | 0.08 | 0.00 | 61 | 1019.7 |
| 20260906112606 | 23 | 130 | 3.2 | 11.3 | 0.00 | 0.08 | 0.00 | 62 | 1019.6 |
| 20260906112110 | 23 | 165 | 4.8 | 14.5 | 0.00 | 0.08 | 0.00 | 62 | 1019.4 |
| 20260906112105 | 23 | 183 | 4.8 | 12.9 | 0.00 | 0.08 | 0.00 | 62 | 1019.6 |
| 20260906111105 | 23 | 172 | 3.2 | 14.5 | 0.00 | 0.08 | 0.00 | 61 | 1019.4 |
| 20260906110605 | 24 | 169 | 3.2 | 11.3 | 0.00 | 0.08 | 0.00 | 61 | 1019.4 |
| 20260906110110 | 24 | 153 | 4.8 | 12.9 | 0.00 | 0.08 | 0.00 | 59 | 1019.6 |
| 20260906110105 | 24 | 148 | 3.2 | 9.7 | 0.00 | 0.08 | 0.00 | 60 | 1019.6 |
| 20260906105717 | 24 | 162 | 4.8 | 12.9 | 0.00 | 0.08 | 0.00 | 59 | 1019.6 |
| 20260906104605 | 24 | 167 | 3.2 | 11.3 | 0.00 | 0.08 | 0.00 | 59 | 1019.6 |
| 20260906104106 | 24 | 175 | 3.2 | 11.3 | 0.00 | 0.08 | 0.00 | 59 | 1019.6 |
| 20260906103605 | 24 | 194 | 3.2 | 11.3 | 0.00 | 0.08 | 0.00 | 59 | 1019.6 |
| 20260906103105 | 24 | 157 | 3.2 | 9.7 | 0.00 | 0.08 | 0.00 | 59 | 1019.6 |
| 20260906102605 | 24 | 166 | 1.6 | 9.7 | 0.00 | 0.08 | 0.00 | 60 | 1019.6 |
| 20260906102105 | 24 | 162 | 1.6 | 8.0 | 0.00 | 0.08 | 0.00 | 60 | 1019.6 |
| 20260906101604 | 24 | 192 | 1.6 | 4.8 | 0.00 | 0.08 | 0.00 | 60 | 1019.4 |
| 20260906101104 | 24 | 147 | 1.6 | 6.4 | 0.00 | 0.08 | 0.00 | 61 | 1019.4 |
| 20260906100603 | 24 | 147 | 1.6 | 6.4 | 0.00 | 0.08 | 0.00 | 61 | 1019.4 |
| 20260906095603 | 23 | 137 | 0.0 | 3.2 | 0.00 | 0.08 | 0.00 | 62 | 1019.3 |
| 20260906095104 | 23 | 109 | 0.0 | 1.6 | 0.00 | 0.08 | 0.00 | 63 | 1019.4 |
| 20260906094603 | 23 | 109 | 0.0 | 3.2 | 0.00 | 0.08 | 0.00 | 62 | 1019.4 |
| 20260906094104 | 23 | 177 | 0.0 | 3.2 | 0.00 | 0.08 | 0.00 | 64 | 1019.4 |
| 20260906093607 | 23 | 113 | 0.0 | 4.8 | 0.00 | 0.08 | 0.00 | 65 | 1019.4 |
| 20260906093603 | 23 | 113 | 0.0 | 4.8 | 0.00 | 0.08 | 0.00 | 65 | 1019.4 |
| 20260906092605 | 23 | 101 | 1.6 | 6.4 | 0.00 | 0.08 | 0.00 | 65 | 1019.4 |
| 20260906092601 | 23 | 101 | 0.0 | 4.8 | 0.00 | 0.08 | 0.00 | 65 | 1019.4 |
| 20260906091602 | 23 | 101 | 1.6 | 6.4 | 0.00 | 0.08 | 0.00 | 65 | 1019.4 |
| 20260906091101 | 23 | 161 | 0.0 | 3.2 | 0.00 | 0.08 | 0.00 | 65 | 1019.4 |
| 20260906090608 | 23 | 161 | 0.0 | 3.2 | 0.00 | 0.08 | 0.00 | 66 | 1019.3 |
| 20260906090601 | 23 | 161 | 0.0 | 3.2 | 0.00 | 0.08 | 0.00 | 64 | 1019.4 |
| 20260906090101 | 23 | 161 | 1.6 | 6.4 | 0.00 | 0.08 | 0.00 | 65 | 1019.4 |
| 20260906085717 | 23 | 161 | 0.0 | 0.0 | 0.00 | 0.08 | 0.00 | 67 | 1019.3 |
| 20260906085601 | 23 | 161 | 0.0 | 6.4 | 0.00 | 0.08 | 0.00 | 65 | 1019.3 |
| 20260906084059 | 23 | 161 | 0.0 | 1.6 | 0.00 | 0.08 | 0.00 | 67 | 1019.3 |
| 20260906083604 | 23 | 161 | 0.0 | 0.0 | 0.00 | 0.08 | 0.00 | 68 | 1019.4 |
| 20260906083600 | 23 | 161 | 0.0 | 1.6 | 0.00 | 0.08 | 0.00 | 67 | 1019.4 |
| 20260906082600 | 23 | 161 | 0.0 | 1.6 | 0.00 | 0.08 | 0.00 | 67 | 1019.4 |
| 20260906082100 | 23 | 161 | 0.0 | 1.6 | 0.00 | 0.08 | 0.00 | 67 | 1019.6 |
| 20260906081559 | 23 | 161 | 0.0 | 1.6 | 0.00 | 0.08 | 0.00 | 67 | 1019.6 |
| 20260906081100 | 23 | 161 | 0.0 | 0.0 | 0.00 | 0.08 | 0.00 | 67 | 1019.6 |
| 20260906080559 | 23 | 161 | 0.0 | 1.6 | 0.00 | 0.08 | 0.00 | 67 | 1019.7 |
| 20260906080058 | 24 | 161 | 0.0 | 1.6 | 0.00 | 0.08 | 0.00 | 66 | 1019.7 |
| 20260906075556 | 24 | 161 | 0.0 | 0.0 | 0.00 | 0.08 | 0.00 | 65 | 1019.8 |
| 20260906075103 | 24 | 161 | 0.0 | 6.4 | 0.00 | 0.08 | 0.00 | 64 | 1019.9 |
| 20260906075058 | 24 | 161 | 0.0 | 0.0 | 0.00 | 0.08 | 0.00 | 65 | 1019.8 |
| 20260906074557 | 24 | 161 | 0.0 | 1.6 | 0.00 | 0.08 | 0.00 | 65 | 1019.8 |
| 20260906073556 | 24 | 161 | 1.6 | 8.0 | 0.00 | 0.08 | 0.00 | 64 | 1019.9 |
| 20260906073058 | 24 | 167 | 1.6 | 8.0 | 0.00 | 0.08 | 0.00 | 64 | 1019.9 |
| 20260906072556 | 24 | 169 | 1.6 | 8.0 | 0.00 | 0.08 | 0.00 | 63 | 1019.9 |
| 20260906072057 | 25 | 166 | 1.6 | 8.0 | 0.00 | 0.08 | 0.00 | 63 | 1019.8 |
| 20260906071559 | 25 | 161 | 3.2 | 14.5 | 0.00 | 0.08 | 0.00 | 62 | 1019.8 |
| 20260906071554 | 25 | 176 | 1.6 | 14.5 | 0.00 | 0.08 | 0.00 | 62 | 1019.8 |
| 20260906070600 | 25 | 139 | 3.2 | 11.3 | 0.00 | 0.08 | 0.00 | 59 | 1019.7 |
| 20260906070553 | 25 | 152 | 3.2 | 9.7 | 0.00 | 0.08 | 0.00 | 61 | 1019.8 |
| 20260906070053 | 25 | 175 | 3.2 | 9.7 | 0.00 | 0.08 | 0.00 | 60 | 1019.8 |
| 20260906065056 | 25 | 169 | 4.8 | 12.9 | 0.00 | 0.08 | 0.00 | 59 | 1019.8 |
| 20260906065052 | 25 | 190 | 3.2 | 12.9 | 0.00 | 0.08 | 0.00 | 59 | 1019.8 |
| 20260906064703 | 25 | 168 | 4.8 | 11.3 | 0.00 | 0.08 | 0.00 | 59 | 1019.7 |
| 20260906063554 | 26 | 132 | 3.2 | 12.9 | 0.00 | 0.08 | 0.00 | 58 | 1019.8 |
| 20260906063550 | 25 | 174 | 3.2 | 12.9 | 0.00 | 0.08 | 0.00 | 58 | 1019.8 |
| 20260906062548 | 26 | 184 | 4.8 | 11.3 | 0.00 | 0.08 | 0.00 | 57 | 1019.8 |
| 20260906062046 | 26 | 159 | 4.8 | 16.1 | 0.00 | 0.08 | 0.00 | 57 | 1019.7 |
| 20260906061552 | 26 | 157 | 4.8 | 14.5 | 0.00 | 0.08 | 0.00 | 58 | 1019.8 |
| 20260906061547 | 26 | 137 | 4.8 | 16.1 | 0.00 | 0.08 | 0.00 | 57 | 1019.8 |
| 20260906060547 | 26 | 144 | 4.8 | 14.5 | 0.00 | 0.08 | 0.00 | 58 | 1019.8 |
| 20260906060049 | 26 | 136 | 3.2 | 12.9 | 0.00 | 0.08 | 0.00 | 58 | 1019.7 |
| 20260906055547 | 26 | 161 | 3.2 | 12.9 | 0.00 | 0.08 | 0.00 | 59 | 1019.8 |
| 20260906055047 | 26 | 155 | 3.2 | 9.7 | 0.00 | 0.08 | 0.00 | 59 | 1019.8 |
| 20260906054545 | 26 | 132 | 3.2 | 12.9 | 0.00 | 0.08 | 0.00 | 59 | 1019.8 |
| 20260906054050 | 25 | 210 | 4.8 | 14.5 | 0.00 | 0.08 | 0.00 | 62 | 1019.8 |
| 20260906054046 | 26 | 194 | 4.8 | 14.5 | 0.00 | 0.08 | 0.00 | 60 | 1019.8 |
| 20260906053045 | 25 | 123 | 3.2 | 11.3 | 0.00 | 0.08 | 0.00 | 64 | 1019.8 |
| 20260906052545 | 25 | 165 | 1.6 | 9.7 | 0.00 | 0.08 | 0.00 | 66 | 1019.7 |
| 20260906052045 | 25 | 165 | 0.0 | 6.4 | 0.00 | 0.08 | 0.00 | 67 | 1019.8 |
| 20260906051545 | 25 | 141 | 0.0 | 6.4 | 0.00 | 0.08 | 0.00 | 66 | 1019.8 |
| 20260906051050 | 25 | 150 | 0.0 | 8.0 | 0.00 | 0.08 | 0.00 | 64 | 1019.8 |
| 20260906051045 | 25 | 150 | 0.0 | 1.6 | 0.00 | 0.08 | 0.00 | 66 | 1019.8 |
| 20260906050051 | 25 | 150 | 0.0 | 8.0 | 0.00 | 0.08 | 0.08 | 63 | 1020.0 |
| 20260906050047 | 26 | 150 | 0.0 | 8.0 | 0.00 | 0.08 | 0.00 | 63 | 1019.8 |
| 20260906045044 | 25 | 169 | 0.0 | 8.0 | 0.00 | 0.08 | 0.08 | 63 | 1019.9 |
| 20260906044548 | 25 | 142 | 1.6 | 6.4 | 0.00 | 0.08 | 0.08 | 63 | 1019.8 |
| 20260906044544 | 25 | 115 | 0.0 | 4.8 | 0.00 | 0.08 | 0.08 | 63 | 1019.9 |
| 20260906043543 | 25 | 171 | 1.6 | 6.4 | 0.00 | 0.08 | 0.08 | 62 | 1019.9 |
| 20260906043043 | 26 | 168 | 1.6 | 6.4 | 0.00 | 0.08 | 0.08 | 63 | 1020.0 |
| 20260906042543 | 26 | 170 | 3.2 | 8.0 | 0.00 | 0.08 | 0.08 | 62 | 1020.0 |
| 20260906042041 | 26 | 153 | 3.2 | 8.0 | 0.00 | 0.08 | 0.08 | 60 | 1020.1 |
| 20260906041541 | 26 | 175 | 3.2 | 8.0 | 0.00 | 0.08 | 0.08 | 59 | 1020.1 |
| 20260906041040 | 26 | 182 | 3.2 | 11.3 | 0.00 | 0.08 | 0.08 | 61 | 1020.1 |
| 20260906040540 | 26 | 155 | 3.2 | 11.3 | 0.00 | 0.08 | 0.08 | 60 | 1020.1 |
| 20260906040040 | 26 | 188 | 3.2 | 12.9 | 0.03 | 0.08 | 0.08 | 61 | 1020.2 |
| 20260906035544 | 25 | 147 | 3.2 | 11.3 | 0.05 | 0.08 | 0.08 | 64 | 1020.2 |
| 20260906035541 | 25 | 169 | 3.2 | 12.9 | 0.03 | 0.08 | 0.08 | 62 | 1020.2 |
| 20260906034538 | 25 | 177 | 3.2 | 11.3 | 0.08 | 0.08 | 0.08 | 64 | 1020.2 |
| 20260906034037 | 25 | 121 | 4.8 | 14.5 | 0.08 | 0.08 | 0.08 | 65 | 1020.1 |
| 20260906033537 | 25 | 136 | 4.8 | 14.5 | 0.08 | 0.08 | 0.08 | 66 | 1020.0 |
| 20260906033036 | 24 | 165 | 6.4 | 19.3 | 0.08 | 0.08 | 0.08 | 67 | 1019.9 |
| 20260906032532 | 24 | 157 | 8.0 | 19.3 | 0.08 | 0.08 | 0.08 | 68 | 1020.0 |
| 20260906032031 | 23 | 171 | 9.7 | 24.1 | 0.08 | 0.08 | 0.08 | 70 | 1020.1 |
| 20260906031534 | 22 | 182 | 9.7 | 22.5 | 0.08 | 0.08 | 0.08 | 74 | 1020.0 |
| 20260906031530 | 23 | 152 | 8.0 | 24.1 | 0.08 | 0.08 | 0.08 | 72 | 1020.2 |
| 20260906030531 | 22 | 152 | 9.7 | 29.0 | 0.08 | 0.08 | 0.08 | 75 | 1020.2 |
| 20260906030028 | 22 | 150 | 9.7 | 29.0 | 0.05 | 0.05 | 0.05 | 74 | 1020.2 |
| 20260906025528 | 23 | 243 | 9.7 | 27.4 | 0.05 | 0.05 | 0.05 | 71 | 1019.9 |
| 20260906025029 | 25 | 168 | 11.3 | 25.7 | 0.03 | 0.03 | 0.03 | 67 | 1019.7 |
| 20260906024529 | 24 | 102 | 12.9 | 30.6 | 0.00 | 0.00 | 0.00 | 63 | 1019.2 |
| 20260906024029 | 24 | 180 | 11.3 | 30.6 | 0.00 | 0.00 | 0.00 | 62 | 1019.3 |
| 20260906023529 | 24 | 103 | 9.7 | 27.4 | 0.00 | 0.00 | 0.00 | 63 | 1019.7 |
| 20260906023028 | 24 | 124 | 14.5 | 35.4 | 0.00 | 0.00 | 0.00 | 63 | 1019.7 |
| 20260906022528 | 25 | 140 | 16.1 | 37.0 | 0.00 | 0.00 | 0.00 | 60 | 1019.4 |
| 20260906022029 | 26 | 92 | 17.7 | 38.6 | 0.00 | 0.00 | 0.00 | 58 | 1018.8 |
| 20260906021533 | 27 | 142 | 12.9 | 30.6 | 0.00 | 0.00 | 0.00 | 55 | 1018.2 |
| 20260906021528 | 26 | 169 | 14.5 | 38.6 | 0.00 | 0.00 | 0.00 | 58 | 1018.3 |
| 20260906020535 | 28 | 187 | 8.0 | 27.4 | 0.00 | 0.00 | 0.00 | 49 | 1018.2 |
| 20260906020528 | 27 | 173 | 14.5 | 30.6 | 0.00 | 0.00 | 0.00 | 53 | 1018.2 |
| 20260906020029 | 27 | 203 | 11.3 | 30.6 | 0.00 | 0.00 | 0.00 | 54 | 1018.3 |
| 20260906015033 | 31 | 186 | 4.8 | 22.5 | 0.00 | 0.00 | 0.00 | 41 | 1017.7 |
| 20260906015028 | 29 | 192 | 6.4 | 19.3 | 0.00 | 0.00 | 0.00 | 46 | 1018.0 |
| 20260906014529 | 30 | 180 | 4.8 | 22.5 | 0.00 | 0.00 | 0.00 | 41 | 1018.0 |
| 20260906013533 | 32 | 175 | 1.6 | 17.7 | 0.00 | 0.00 | 0.00 | 38 | 1017.7 |
| 20260906013528 | 31 | 215 | 3.2 | 17.7 | 0.00 | 0.00 | 0.00 | 39 | 1017.7 |
| 20260906012532 | 32 | 263 | 1.6 | 8.0 | 0.00 | 0.00 | 0.00 | 35 | 1017.5 |
| 20260906012528 | 32 | 284 | 1.6 | 8.0 | 0.00 | 0.00 | 0.00 | 36 | 1017.5 |
| 20260906012140 | 32 | 103 | 1.6 | 6.4 | 0.00 | 0.00 | 0.00 | 35 | 1017.4 |
| 20260906011032 | 32 | 221 | 0.0 | 1.6 | 0.00 | 0.00 | 0.00 | 35 | 1017.3 |
| 20260906011028 | 32 | 216 | 1.6 | 6.4 | 0.00 | 0.00 | 0.00 | 35 | 1017.4 |
| 20260906010033 | 32 | 221 | 0.0 | 3.2 | 0.00 | 0.00 | 0.00 | 35 | 1017.2 |
| 20260906010029 | 32 | 221 | 0.0 | 1.6 | 0.00 | 0.00 | 0.00 | 35 | 1017.3 |
| 20260906005028 | 32 | 221 | 0.0 | 3.2 | 0.00 | 0.00 | 0.00 | 35 | 1017.1 |
| 20260906004528 | 32 | 221 | 0.0 | 3.2 | 0.00 | 0.00 | 0.00 | 34 | 1017.1 |
| 20260906004025 | 32 | 221 | 1.6 | 6.4 | 0.00 | 0.00 | 0.00 | 34 | 1017.1 |
| 20260906003523 | 32 | 192 | 1.6 | 6.4 | 0.00 | 0.00 | 0.00 | 34 | 1017.2 |
| 20260906003024 | 32 | 183 | 3.2 | 6.4 | 0.00 | 0.00 | 0.00 | 34 | 1017.1 |
| 20260906002523 | 32 | 307 | 4.8 | 8.0 | 0.00 | 0.00 | 0.00 | 34 | 1017.1 |
| 20260906002519 | 32 | 327 | 3.2 | 8.0 | 0.00 | 0.00 | 0.00 | 34 | 1017.1 |
| 20260906001516 | 33 | 304 | 1.6 | 6.4 | 0.00 | 0.00 | 0.00 | 34 | 1017.2 |
| 20260906001014 | 33 | 350 | 1.6 | 6.4 | 0.00 | 0.00 | 0.00 | 33 | 1017.1 |
| 20260906000513 | 33 | 315 | 1.6 | 6.4 | 0.00 | 0.00 | 0.00 | 33 | 1017.1 |
| 20260906000011 | 33 | 224 | 1.6 | 6.4 | 0.00 | 0.00 | 0.00 | 32 | 1017.2 |
| 20260905235515 | 35 | 5 | 3.2 | 11.3 | 0.00 | 0.00 | 0.00 | 31 | 1017.0 |
| 20260905235510 | 34 | 232 | 1.6 | 4.8 | 0.00 | 0.00 | 0.00 | 32 | 1017.1 |
| 20260905234511 | 35 | 170 | 3.2 | 12.9 | 0.00 | 0.00 | 0.00 | 29 | 1016.6 |
| 20260905234507 | 35 | 230 | 4.8 | 12.9 | 0.00 | 0.00 | 0.00 | 30 | 1016.9 |
| 20260905233511 | 35 | 13 | 3.2 | 12.9 | 0.00 | 0.00 | 0.00 | 29 | 1016.4 |
| 20260905233506 | 35 | 107 | 4.8 | 12.9 | 0.00 | 0.00 | 0.00 | 29 | 1016.4 |
| 20260905232504 | 35 | 154 | 4.8 | 12.9 | 0.00 | 0.00 | 0.00 | 29 | 1016.4 |
| 20260905232004 | 35 | 177 | 4.8 | 12.9 | 0.00 | 0.00 | 0.00 | 29 | 1016.3 |
| 20260905231504 | 36 | 90 | 4.8 | 14.5 | 0.00 | 0.00 | 0.00 | 29 | 1016.3 |
| 20260905231005 | 36 | 148 | 4.8 | 14.5 | 0.00 | 0.00 | 0.00 | 28 | 1016.3 |
| 20260905230505 | 36 | 78 | 3.2 | 12.9 | 0.00 | 0.00 | 0.00 | 28 | 1016.3 |
| 20260905230002 | 36 | 110 | 4.8 | 14.5 | 0.00 | 0.00 | 0.00 | 27 | 1016.3 |
| 20260905225503 | 36 | 193 | 6.4 | 16.1 | 0.00 | 0.00 | 0.00 | 27 | 1016.4 |
| 20260905225004 | 36 | 219 | 4.8 | 16.1 | 0.00 | 0.00 | 0.00 | 27 | 1016.3 |
| 20260905224458 | 36 | 120 | 4.8 | 16.1 | 0.00 | 0.00 | 0.00 | 27 | 1016.2 |
| 20260905223958 | 36 | 135 | 3.2 | 16.1 | 0.00 | 0.00 | 0.00 | 27 | 1016.2 |
| 20260905223500 | 36 | 297 | 3.2 | 11.3 | 0.00 | 0.00 | 0.00 | 27 | 1016.3 |
| 20260905222958 | 36 | 159 | 3.2 | 14.5 | 0.00 | 0.00 | 0.00 | 26 | 1016.4 |
| 20260905222457 | 36 | 187 | 4.8 | 14.5 | 0.00 | 0.00 | 0.00 | 27 | 1016.3 |
| 20260905221956 | 36 | 161 | 3.2 | 12.9 | 0.00 | 0.00 | 0.00 | 28 | 1016.4 |
| 20260905221456 | 36 | 187 | 4.8 | 14.5 | 0.00 | 0.00 | 0.00 | 29 | 1016.5 |
| 20260905220959 | 36 | 164 | 4.8 | 20.9 | 0.00 | 0.00 | 0.00 | 28 | 1016.4 |
| 20260905220954 | 36 | 137 | 4.8 | 14.5 | 0.00 | 0.00 | 0.00 | 29 | 1016.5 |
| 20260905215954 | 35 | 238 | 6.4 | 20.9 | 0.00 | 0.00 | 0.00 | 29 | 1016.5 |
| 20260905215454 | 36 | 172 | 6.4 | 19.3 | 0.00 | 0.00 | 0.00 | 27 | 1016.6 |